Terminal Aerodrome Forecast
Issued by NWS Buffalo, NY

Home | Current Version | Previous Version | Text Only | Print | Product List | Glossary On
Versions: 1 2 3 4 5 6 7 8 9 10 11 12 13 14 15 16 17 18 19 20 21 22 23 24 25 26 27
227
FTUS41 KBUF 111522 AAB
TAFROC
TAF AMD
KROC 111522Z 1115/1212 30015G25KT 3SM -SN BLSN SCT025 OVC035
      TEMPO 1115/1118 1/2SM SN OVC015
     FM112000 29017G24KT 4SM -SHSN OVC025
     FM112300 29014G22KT P6SM VCSH OVC035
     FM120100 28012KT P6SM BKN035
     FM120500 24009KT P6SM BKN040=

USA.gov is the U.S. government's official web portal to all federal, state and local government web resources and services.